createdAt,value
2023-03-23T15:58:51.816Z,100539.75
2023-03-23T16:01:25.069Z,100532.31
2023-03-23T16:03:59.047Z,100543.66
2023-03-23T16:06:28.247Z,100533.44
2023-03-23T16:08:56.071Z,100544.25
2023-03-23T16:11:24.951Z,100537.19
2023-03-23T16:13:52.244Z,100531.53
2023-03-23T16:16:24.629Z,100525.88
2023-03-23T16:18:51.313Z,100539.22
2023-03-23T16:21:18.431Z,100521.78
2023-03-23T16:23:46.750Z,100521.75
2023-03-23T16:26:16.371Z,100518.94
2023-03-23T16:28:43.829Z,100504.13
2023-03-23T16:31:11.007Z,100488.91
2023-03-23T16:33:37.937Z,100494.00
2023-03-23T16:36:05.541Z,100486.69
2023-03-23T16:38:32.871Z,100480.88
2023-03-23T16:41:16.325Z,100477.59
2023-03-23T16:43:43.137Z,100473.75
2023-03-23T16:46:11.328Z,100459.47
2023-03-23T16:48:38.339Z,100465.25
2023-03-23T16:51:05.578Z,100464.94
2023-03-23T16:53:32.800Z,100447.03
2023-03-23T16:55:59.321Z,100450.75
2023-03-23T16:58:25.988Z,100453.41
2023-03-23T17:00:55.673Z,100426.28
2023-03-23T17:03:22.923Z,100408.28
2023-03-23T17:05:51.157Z,100350.19
2023-03-23T17:08:21.036Z,100291.50
2023-03-23T17:10:48.484Z,100244.84
2023-03-23T17:13:15.881Z,100213.22
2023-03-23T17:15:46.430Z,100173.66
2023-03-23T17:18:14.540Z,100162.59
2023-03-23T17:20:41.750Z,100106.66
2023-03-23T17:23:08.510Z,100113.94
2023-03-23T17:25:35.212Z,100092.31
2023-03-23T17:28:05.553Z,100086.13
2023-03-23T17:30:44.754Z,100068.59
2023-03-23T17:33:12.293Z,100059.19
2023-03-23T17:35:38.968Z,100051.22
2023-03-23T17:38:06.303Z,100022.91
2023-03-23T17:40:32.892Z,100006.00
2023-03-23T17:42:59.427Z,100005.44
2023-03-23T17:45:26.023Z,100045.75
2023-03-23T17:47:52.836Z,100029.41
2023-03-23T17:50:19.993Z,100032.31
2023-03-23T17:52:46.573Z,100025.72
2023-03-23T17:55:13.143Z,100012.22
2023-03-23T17:57:39.780Z,100008.41
2023-03-23T18:00:09.140Z,100014.81
2023-03-23T18:02:37.360Z,100010.31
2023-03-23T18:05:04.844Z,100016.78
2023-03-23T18:07:31.490Z,100037.50
2023-03-23T18:09:59.752Z,100079.50
2023-03-23T18:12:26.396Z,100102.41
2023-03-23T18:14:57.608Z,100127.41
2023-03-23T18:17:24.596Z,100089.63
2023-03-23T18:19:51.306Z,100090.88
2023-03-23T18:22:17.860Z,100099.53
2023-03-23T18:24:44.465Z,100087.34
2023-03-23T18:27:10.959Z,100067.41
2023-03-23T18:29:37.726Z,100054.19
2023-03-23T18:32:04.510Z,100031.84
2023-03-23T18:34:32.090Z,100028.44
2023-03-23T18:36:58.656Z,100051.78
2023-03-23T18:39:25.250Z,100028.13
2023-03-23T18:41:51.835Z,100009.75
2023-03-23T18:44:18.439Z,99988.16
2023-03-23T18:46:45.043Z,99980.19
2023-03-23T18:49:11.653Z,99963.06
2023-03-23T18:51:38.364Z,99881.41
2023-03-23T18:54:05.006Z,99863.06
2023-03-23T18:56:31.623Z,99834.09
2023-03-23T18:58:58.428Z,99803.50
2023-03-23T19:01:25.165Z,99722.88
2023-03-23T19:03:51.884Z,99695.53
2023-03-23T19:06:23.955Z,99662.88
2023-03-23T19:08:52.225Z,99633.69
2023-03-23T19:11:20.248Z,99504.97
2023-03-23T19:13:58.440Z,99487.44
2023-03-23T19:16:28.233Z,99451.00
2023-03-23T19:18:54.915Z,99299.56
2023-03-23T19:21:25.489Z,99292.66
2023-03-23T19:23:53.226Z,99272.50
2023-03-23T19:26:27.429Z,99252.72
2023-03-23T19:29:24.324Z,99240.53
2023-03-23T19:31:40.674Z,99223.78
2023-03-23T19:34:08.714Z,99212.63
2023-03-23T19:36:37.027Z,99190.81
2023-03-23T19:39:06.495Z,99173.56
2023-03-23T19:41:34.066Z,99147.59
2023-03-23T19:44:01.452Z,99129.50
2023-03-23T19:46:30.450Z,99116.00
2023-03-23T19:48:58.456Z,99089.72
2023-03-23T19:51:25.461Z,99064.81
2023-03-23T19:53:56.115Z,99045.13
2023-03-23T19:56:23.720Z,99018.03
2023-03-23T19:58:50.928Z,98816.00
2023-03-23T20:01:18.570Z,98782.56
2023-03-23T20:03:45.777Z,98762.41
2023-03-23T20:06:15.104Z,98738.53
2023-03-23T20:08:45.683Z,98724.22
2023-03-23T20:11:15.515Z,98719.47
2023-03-23T20:13:42.273Z,98704.84
2023-03-23T20:16:09.971Z,98683.19
2023-03-23T20:18:38.104Z,98677.31
2023-03-23T20:21:09.980Z,98668.56
2023-03-23T20:23:37.275Z,98654.00
2023-03-23T20:26:07.889Z,98638.09
2023-03-23T20:28:35.808Z,98628.53
2023-03-23T20:31:18.988Z,98629.59
2023-03-23T20:34:01.050Z,98617.63
2023-03-23T20:36:40.497Z,98611.78
2023-03-23T20:39:10.694Z,98609.41
2023-03-23T20:41:38.915Z,98606.75
2023-03-23T20:44:10.107Z,98592.16
2023-03-23T20:46:36.774Z,98592.97
2023-03-23T20:49:05.343Z,98581.81
2023-03-23T20:51:33.444Z,98571.22
2023-03-23T20:54:00.892Z,98575.97
2023-03-23T20:56:28.822Z,98570.66
2023-03-23T20:58:56.018Z,98818.25
2023-03-23T21:01:22.962Z,99168.69
2023-03-23T21:03:52.432Z,99181.34
2023-03-23T21:06:20.168Z,99103.91
2023-03-23T21:08:47.110Z,99037.28
2023-03-23T21:11:21.792Z,98968.06
2023-03-23T21:13:49.036Z,98916.34
2023-03-23T21:16:15.954Z,98874.41
2023-03-23T21:18:42.675Z,98822.69
2023-03-23T21:21:11.291Z,98788.25
2023-03-23T21:23:39.310Z,98757.19
2023-03-23T21:26:10.608Z,98741.03
2023-03-23T21:28:38.059Z,98703.63
2023-03-23T21:31:07.373Z,98676.56
2023-03-23T21:33:34.185Z,98648.25
2023-03-23T21:36:01.512Z,98619.59
2023-03-23T21:38:28.451Z,98605.84
2023-03-23T21:40:59.822Z,98588.34
2023-03-23T21:43:27.894Z,98558.16
2023-03-23T21:45:57.330Z,98552.06
2023-03-23T21:48:26.486Z,98542.75
2023-03-23T21:50:53.916Z,98508.31
2023-03-23T21:53:20.953Z,98499.31
2023-03-23T21:55:51.781Z,98483.47
2023-03-23T21:58:26.796Z,98464.91
2023-03-23T22:00:54.705Z,98447.47
2023-03-23T22:03:25.610Z,98434.75
2023-03-23T22:05:56.796Z,98424.75
2023-03-23T22:08:28.888Z,98426.13
2023-03-23T22:11:03.482Z,98423.72
2023-03-23T22:13:32.230Z,98404.91
2023-03-23T22:16:00.869Z,98408.88
2023-03-23T22:18:27.496Z,98390.59
2023-03-23T22:20:54.227Z,98367.28
2023-03-23T22:23:21.258Z,98354.31
2023-03-23T22:25:47.848Z,98368.63
2023-03-23T22:28:14.477Z,98351.44
2023-03-23T22:30:41.165Z,98349.31
2023-03-23T22:33:08.061Z,98344.03
2023-03-23T22:35:34.720Z,98327.59
2023-03-23T22:38:03.205Z,98319.91
2023-03-23T22:40:31.553Z,98307.97
2023-03-23T22:42:58.250Z,98311.44
2023-03-23T22:45:26.149Z,98312.25
2023-03-23T22:47:53.086Z,98294.22
2023-03-23T22:50:21.555Z,98292.91
2023-03-23T22:52:48.459Z,98278.31
2023-03-23T22:55:15.192Z,98262.69
2023-03-23T22:57:42.018Z,98261.09
2023-03-23T23:00:14.994Z,98249.13
2023-03-23T23:02:44.286Z,98227.41
2023-03-23T23:05:12.955Z,98217.09
2023-03-23T23:07:39.930Z,98190.81
2023-03-23T23:10:07.161Z,98048.75
2023-03-23T23:12:35.112Z,98031.28
2023-03-23T23:15:04.517Z,98022.00
2023-03-23T23:17:32.167Z,98017.75
2023-03-23T23:19:59.961Z,98002.63
2023-03-23T23:22:27.504Z,97993.91
2023-03-23T23:24:54.352Z,97983.56
2023-03-23T23:27:20.985Z,97958.91
2023-03-23T23:29:47.756Z,97962.88
2023-03-23T23:32:14.475Z,97945.13
2023-03-23T23:34:41.275Z,97948.28
2023-03-23T23:37:09.107Z,97938.22
2023-03-23T23:39:38.321Z,97931.59
2023-03-23T23:42:05.999Z,97910.38
2023-03-23T23:44:33.148Z,97906.41
2023-03-23T23:46:59.847Z,97909.31
2023-03-23T23:49:27.684Z,97897.13
2023-03-23T23:51:55.468Z,97889.97
2023-03-23T23:54:29.907Z,97877.25
2023-03-23T23:56:57.961Z,97893.63
2023-03-23T23:59:25.726Z,97909.03
